Adrian, Oregon
Current Conditions -  °F | °C
As of 6:53 AM on Friday 24 Oct 2014 (Local Time) from KONO Reporting Station
Light Rain Light Rain  
Wind Chill: 51°   Ceiling: 6500
Heat Index: 51°   Visibility: 5mi
Dew Point: 50°   Wind: 0mph
Humidity: 96%   Direction: NA
Pressure: 30.1"   Gusts: NA
Location:  43.74°N, 117.07°W
Report Text: KONO 241253Z AUTO 00000KT 5SM -RA BR OVC065 11/10 A3010 RMK AO2 SLP194 P0003 T01060100
Loading
Personal Weather Stations






























Interactive Weather Map
Tropical Storm Tracking
New forecast layout! Learn more

10-Day Weather Forecast

Advertisements
Track Severe Weather on mobile